Time;durP1;ratioP1;P1;durP2;ratioP2;P2;SDS_P1;SDS_P2;PMS_P1;PMS_P2;Temp;Humidity;BMP_temperature;BMP_pressure;BME280_temperature;BME280_humidity;BME280_pressure;Samples;Min_cycle;Max_cycle;Signal;HPM_P1;HPM_P2
2023/06/11 00:01:08;;;;;;;12.13;7.93;;;17.00;98.90;;;;;;5047247;28;20382;-67
2023/06/11 00:03:40;;;;;;;14.33;8.50;;;17.00;98.70;;;;;;5047244;28;20064;-67
2023/06/11 00:06:07;;;;;;;13.93;8.23;;;17.00;99.10;;;;;;5046629;28;20291;-67
2023/06/11 00:08:33;;;;;;;15.80;8.17;;;17.00;99.50;;;;;;5047915;28;20317;-67
2023/06/11 00:10:58;;;;;;;13.60;8.47;;;17.00;99.10;;;;;;5047921;28;20291;-67
2023/06/11 00:13:25;;;;;;;12.63;7.93;;;17.00;99.40;;;;;;5045924;28;20705;-67
2023/06/11 00:15:51;;;;;;;15.43;8.50;;;17.00;99.10;;;;;;5030120;28;20044;-67
2023/06/11 00:18:17;;;;;;;15.20;8.63;;;17.00;99.50;;;;;;5047225;28;20402;-67
2023/06/11 00:20:43;;;;;;;13.50;7.93;;;17.00;99.30;;;;;;5048787;28;20084;-67
2023/06/11 00:23:09;;;;;;;15.50;8.27;;;17.00;99.80;;;;;;5031947;28;20060;-67
2023/06/11 00:25:35;;;;;;;17.53;8.73;;;16.90;99.60;;;;;;5031838;28;20288;-67
2023/06/11 00:28:01;;;;;;;13.97;8.27;;;16.90;99.50;;;;;;5048782;28;20346;-67
2023/06/11 00:30:26;;;;;;;14.23;9.27;;;17.00;99.60;;;;;;5032690;28;20048;-67
2023/06/11 00:32:52;;;;;;;15.03;9.33;;;16.90;99.90;;;;;;5048982;28;20045;-67
2023/06/11 00:35:18;;;;;;;17.90;8.63;;;16.90;99.90;;;;;;5048901;28;20049;-67
2023/06/11 00:37:43;;;;;;;17.70;9.17;;;17.00;99.90;;;;;;5042074;28;20120;-67
2023/06/11 00:40:09;;;;;;;15.93;9.20;;;16.90;99.90;;;;;;5048734;28;20048;-67
2023/06/11 00:42:36;;;;;;;15.50;9.10;;;16.90;99.90;;;;;;5064896;28;20390;-67
2023/06/11 00:45:05;;;;;;;16.60;9.27;;;16.90;99.90;;;;;;5047906;28;20416;-67
2023/06/11 00:47:32;;;;;;;13.50;9.20;;;17.00;99.90;;;;;;5048440;28;20658;-67
2023/06/11 00:50:00;;;;;;;15.73;8.87;;;16.90;99.90;;;;;;5048412;28;20682;-67
2023/06/11 00:52:26;;;;;;;14.07;9.30;;;16.90;99.90;;;;;;5048669;28;20808;-67
2023/06/11 00:54:53;;;;;;;14.50;8.83;;;16.90;99.90;;;;;;5047787;28;20282;-67
2023/06/11 00:57:22;;;;;;;16.90;9.47;;;16.90;99.90;;;;;;5048409;28;20288;-67
2023/06/11 00:59:50;;;;;;;14.50;9.00;;;16.90;99.90;;;;;;5048507;28;20283;-67
2023/06/11 01:02:41;;;;;;;17.40;9.50;;;16.90;99.90;;;;;;5048110;28;20385;-67
2023/06/11 01:05:08;;;;;;;15.40;9.87;;;16.90;99.90;;;;;;5044991;28;20294;-67
2023/06/11 01:07:41;;;;;;;19.40;9.93;;;16.90;99.90;;;;;;5045820;28;20295;-67
2023/06/11 01:10:07;;;;;;;13.87;9.67;;;17.00;99.90;;;;;;5045129;28;20283;-67
2023/06/11 01:12:33;;;;;;;16.60;9.97;;;16.90;99.90;;;;;;5048067;28;20291;-67
2023/06/11 01:14:59;;;;;;;17.50;10.00;;;16.90;99.90;;;;;;5039662;28;20345;-67
2023/06/11 01:17:25;;;;;;;15.97;9.60;;;16.90;99.90;;;;;;5048000;28;20528;-67
2023/06/11 01:20:13;;;;;;;17.07;10.07;;;17.00;99.90;;;;;;5047968;28;20292;-67
2023/06/11 01:23:04;;;;;;;15.80;10.20;;;17.00;99.90;;;;;;5038030;28;20056;-67
2023/06/11 01:25:33;;;;;;;14.27;9.97;;;16.90;99.90;;;;;;5047911;28;20290;-67
2023/06/11 01:28:02;;;;;;;20.63;9.67;;;16.90;99.90;;;;;;5047718;28;20276;-67
2023/06/11 01:30:31;;;;;;;12.63;9.30;;;16.90;99.90;;;;;;5046981;28;20333;-67
2023/06/11 01:32:59;;;;;;;16.03;10.17;;;16.90;99.90;;;;;;5047948;28;20287;-67
2023/06/11 01:35:25;;;;;;;17.33;10.00;;;16.90;99.90;;;;;;5042206;28;20296;-67
2023/06/11 01:37:58;;;;;;;15.83;9.30;;;16.80;99.90;;;;;;5044272;28;20361;-67
2023/06/11 01:40:28;;;;;;;12.20;9.87;;;16.80;99.90;;;;;;5047740;28;20365;-67
2023/06/11 01:42:54;;;;;;;14.90;9.77;;;16.80;99.90;;;;;;5047175;28;20307;-67
2023/06/11 01:45:22;;;;;;;15.33;9.93;;;16.80;99.90;;;;;;5044163;28;20342;-67
2023/06/11 01:47:52;;;;;;;15.00;10.37;;;16.80;99.90;;;;;;5031110;28;20935;-67
2023/06/11 01:50:18;;;;;;;15.70;10.73;;;16.80;99.90;;;;;;5029648;28;20402;-67
2023/06/11 01:52:45;;;;;;;16.00;11.10;;;16.80;99.90;;;;;;5064196;28;20298;-67
2023/06/11 01:55:11;;;;;;;14.63;10.10;;;16.80;99.90;;;;;;5047334;28;20291;-67
2023/06/11 01:57:38;;;;;;;14.30;9.80;;;16.80;99.90;;;;;;5063890;28;20779;-67
2023/06/11 02:00:08;;;;;;;17.50;10.20;;;16.80;99.90;;;;;;5030797;28;20287;-67
2023/06/11 02:02:35;;;;;;;13.40;10.10;;;16.70;99.90;;;;;;5059792;28;20386;-67
2023/06/11 02:05:01;;;;;;;15.97;9.50;;;16.70;99.90;;;;;;5047564;28;20349;-67
2023/06/11 02:07:27;;;;;;;15.50;9.50;;;16.70;99.50;;;;;;5046234;28;20896;-67
2023/06/11 02:09:54;;;;;;;17.43;9.93;;;16.70;99.30;;;;;;5046992;28;20033;-67
2023/06/11 02:12:20;;;;;;;12.63;9.63;;;16.60;99.10;;;;;;5040406;28;20315;-67
2023/06/11 02:14:45;;;;;;;14.97;9.70;;;16.60;99.20;;;;;;5047279;28;20311;-67
2023/06/11 02:17:11;;;;;;;12.00;10.00;;;16.60;98.80;;;;;;5047249;28;20045;-67
2023/06/11 02:19:37;;;;;;;13.87;9.40;;;16.60;98.50;;;;;;5047273;28;20048;-67
2023/06/11 02:22:03;;;;;;;13.73;9.40;;;16.50;98.30;;;;;;5034855;28;20672;-67
2023/06/11 02:24:29;;;;;;;12.33;9.67;;;16.50;98.30;;;;;;5029503;28;20045;-67
2023/06/11 02:26:54;;;;;;;14.23;9.70;;;16.50;98.30;;;;;;5046003;28;20659;-67
2023/06/11 02:29:20;;;;;;;13.23;9.83;;;16.50;98.00;;;;;;5046951;28;20118;-67
2023/06/11 02:31:46;;;;;;;11.80;9.07;;;16.40;97.70;;;;;;5046403;28;20068;-67
2023/06/11 02:34:11;;;;;;;14.23;9.53;;;16.40;97.60;;;;;;5046503;28;20047;-67
2023/06/11 02:36:37;;;;;;;12.13;9.50;;;16.40;97.20;;;;;;5045878;28;20037;-67
2023/06/11 02:39:03;;;;;;;14.63;10.10;;;16.40;97.10;;;;;;5046008;28;20110;-67
2023/06/11 02:41:29;;;;;;;10.60;9.50;;;16.40;96.80;;;;;;5046393;28;20407;-67
2023/06/11 02:43:56;;;;;;;14.67;10.07;;;16.40;96.70;;;;;;5044276;28;20390;-67
2023/06/11 02:46:22;;;;;;;11.70;9.03;;;16.40;96.70;;;;;;5045338;28;20386;-67
2023/06/11 02:48:47;;;;;;;10.73;9.63;;;16.30;96.50;;;;;;5061306;28;20314;-67
2023/06/11 02:51:13;;;;;;;14.27;10.40;;;16.30;96.50;;;;;;5045964;28;20330;-67
2023/06/11 02:53:39;;;;;;;11.63;9.37;;;16.30;96.60;;;;;;5029942;28;20064;-67
2023/06/11 02:56:05;;;;;;;14.23;10.47;;;16.20;96.40;;;;;;5045878;28;20400;-67
2023/06/11 02:58:31;;;;;;;14.40;11.07;;;16.20;96.40;;;;;;5061931;28;20051;-67
2023/06/11 03:00:57;;;;;;;11.37;9.77;;;16.20;96.40;;;;;;5028320;28;20508;-67
2023/06/11 03:03:22;;;;;;;12.57;10.50;;;16.20;96.50;;;;;;5046395;28;20321;-67
2023/06/11 03:05:48;;;;;;;12.23;9.93;;;16.20;96.50;;;;;;5045767;28;20041;-67
2023/06/11 03:08:14;;;;;;;13.33;10.43;;;16.20;96.40;;;;;;5045209;28;20072;-67
2023/06/11 03:10:39;;;;;;;13.10;10.23;;;16.10;96.20;;;;;;5043519;28;20052;-67
2023/06/11 03:13:05;;;;;;;13.13;10.53;;;16.10;96.30;;;;;;5044434;28;20427;-67
2023/06/11 03:15:31;;;;;;;13.20;10.83;;;16.10;96.20;;;;;;5045410;28;20546;-67
2023/06/11 03:17:57;;;;;;;12.37;10.90;;;16.10;96.10;;;;;;5046243;28;20052;-67
2023/06/11 03:20:23;;;;;;;13.07;10.70;;;16.10;96.00;;;;;;5059922;28;20083;-67
2023/06/11 03:22:49;;;;;;;15.17;11.23;;;16.10;96.30;;;;;;5044415;28;20318;-68
2023/06/11 03:25:15;;;;;;;12.93;10.90;;;16.10;96.30;;;;;;5045849;28;20588;-68
2023/06/11 03:27:40;;;;;;;11.20;9.97;;;16.10;96.40;;;;;;5044987;28;20439;-68
2023/06/11 03:30:07;;;;;;;12.23;10.27;;;16.10;96.10;;;;;;5046016;28;20045;-68
2023/06/11 03:32:33;;;;;;;17.33;10.90;;;16.10;96.10;;;;;;5048463;28;20048;-68
2023/06/11 03:34:58;;;;;;;13.23;10.90;;;16.10;96.30;;;;;;5032509;28;20651;-68
2023/06/11 03:37:24;;;;;;;12.53;11.23;;;16.10;96.10;;;;;;5047115;28;23440;-68
2023/06/11 03:39:50;;;;;;;11.03;9.90;;;16.10;96.20;;;;;;5047205;28;20048;-68
2023/06/11 03:42:16;;;;;;;12.60;11.30;;;16.10;96.20;;;;;;5049469;28;20045;-68
2023/06/11 03:44:41;;;;;;;16.17;11.00;;;16.10;96.20;;;;;;5049244;28;20121;-68
2023/06/11 03:47:07;;;;;;;13.50;10.83;;;16.10;96.30;;;;;;5066187;28;20037;-68
2023/06/11 03:49:33;;;;;;;13.10;10.83;;;16.10;96.50;;;;;;5062321;28;20478;-68
2023/06/11 03:51:59;;;;;;;12.10;10.80;;;16.10;96.50;;;;;;5048629;28;20246;-68
2023/06/11 03:54:24;;;;;;;13.10;11.37;;;16.10;96.30;;;;;;5032438;28;20480;-68
2023/06/11 03:56:50;;;;;;;12.60;10.97;;;16.10;96.30;;;;;;5049014;28;20045;-68
2023/06/11 03:59:16;;;;;;;13.90;10.43;;;16.10;96.10;;;;;;5049122;28;20041;-68
2023/06/11 04:01:42;;;;;;;11.67;10.47;;;16.20;95.90;;;;;;5045920;28;20057;-68
2023/06/11 04:04:07;;;;;;;14.47;11.33;;;16.20;95.30;;;;;;5044242;28;20065;-68
2023/06/11 04:06:40;;;;;;;11.80;10.63;;;16.20;95.10;;;;;;5049097;28;20404;-68
2023/06/11 04:09:06;;;;;;;12.57;11.13;;;16.20;94.90;;;;;;5062360;28;20033;-68
2023/06/11 04:11:32;;;;;;;12.00;10.77;;;16.20;94.60;;;;;;5048163;28;20276;-68
2023/06/11 04:13:58;;;;;;;14.27;11.07;;;16.30;94.70;;;;;;5049030;28;20329;-68
2023/06/11 04:16:24;;;;;;;12.53;11.23;;;16.30;94.60;;;;;;5048748;28;20052;-68
2023/06/11 04:18:50;;;;;;;13.00;11.60;;;16.30;94.70;;;;;;5047193;28;21198;-68
2023/06/11 04:21:16;;;;;;;13.47;11.23;;;16.30;94.70;;;;;;5062689;28;20067;-68
2023/06/11 04:23:41;;;;;;;13.40;11.17;;;16.40;94.70;;;;;;5046136;28;20295;-68
2023/06/11 04:26:08;;;;;;;12.03;10.83;;;16.40;94.40;;;;;;5043315;28;20072;-68
2023/06/11 04:28:37;;;;;;;13.93;11.83;;;16.40;94.20;;;;;;5048026;28;20119;-68
2023/06/11 04:31:06;;;;;;;13.57;11.57;;;16.50;94.10;;;;;;5049210;28;20766;-68
2023/06/11 04:33:32;;;;;;;13.20;11.70;;;16.50;94.40;;;;;;5030189;28;20646;-68
2023/06/11 04:36:09;;;;;;;12.27;10.97;;;16.70;95.20;;;;;;5049121;28;20287;-68
2023/06/11 04:38:38;;;;;;;12.37;11.10;;;17.50;94.00;;;;;;5044753;28;20295;-68
2023/06/11 04:41:11;;;;;;;12.00;10.73;;;18.40;91.20;;;;;;5049068;28;20763;-68
2023/06/11 04:43:37;;;;;;;12.00;10.77;;;19.10;87.90;;;;;;5047519;28;20817;-68
2023/06/11 04:46:03;;;;;;;13.03;10.20;;;19.60;85.10;;;;;;5048649;28;20287;-68
2023/06/11 04:48:31;;;;;;;12.33;9.60;;;20.00;83.90;;;;;;5064256;28;20488;-68
2023/06/11 04:51:00;;;;;;;13.37;10.33;;;20.40;81.30;;;;;;5048350;28;20319;-68
2023/06/11 04:53:27;;;;;;;12.80;10.70;;;20.80;79.50;;;;;;5048524;28;20382;-68
2023/06/11 04:55:55;;;;;;;11.30;10.20;;;21.20;77.80;;;;;;5047543;28;20295;-68
2023/06/11 04:58:25;;;;;;;11.57;10.43;;;21.70;74.90;;;;;;5048270;28;20284;-68
2023/06/11 05:00:52;;;;;;;12.37;9.63;;;22.20;72.80;;;;;;5048565;28;20279;-68
2023/06/11 05:03:19;;;;;;;11.17;10.07;;;22.50;71.10;;;;;;5039370;28;20651;-68
2023/06/11 05:05:51;;;;;;;10.87;9.87;;;22.90;69.30;;;;;;5043462;28;20284;-68
2023/06/11 05:08:18;;;;;;;10.03;9.00;;;23.40;68.00;;;;;;5045320;28;20025;-68
2023/06/11 05:10:44;;;;;;;11.20;9.57;;;23.70;66.30;;;;;;5048112;28;20055;-68
2023/06/11 05:13:13;;;;;;;11.63;10.43;;;24.00;64.90;;;;;;5047634;28;20045;-68
2023/06/11 05:15:39;;;;;;;11.47;10.20;;;24.20;64.20;;;;;;5046369;28;20536;-68
2023/06/11 05:18:05;;;;;;;10.57;9.50;;;24.40;63.10;;;;;;5047251;28;20047;-68
2023/06/11 05:20:31;;;;;;;10.40;9.40;;;24.60;61.90;;;;;;5047196;28;20555;-68
2023/06/11 05:23:03;;;;;;;10.87;9.87;;;24.80;61.40;;;;;;5047319;28;20098;-68
2023/06/11 05:25:29;;;;;;;10.73;9.63;;;24.90;60.30;;;;;;5042971;28;20422;-68
2023/06/11 05:27:59;;;;;;;14.13;10.50;;;25.00;59.30;;;;;;5046130;28;20633;-68
2023/06/11 05:30:25;;;;;;;13.70;10.67;;;25.10;58.90;;;;;;5045506;28;20565;-68
2023/06/11 05:32:56;;;;;;;11.40;10.23;;;25.10;59.80;;;;;;5045304;28;20571;-68
2023/06/11 05:35:22;;;;;;;10.37;9.37;;;25.30;59.60;;;;;;5044753;28;20370;-68
2023/06/11 05:37:48;;;;;;;11.03;9.97;;;25.40;59.00;;;;;;5044194;28;20045;-68
2023/06/11 05:40:14;;;;;;;10.63;9.57;;;25.50;58.00;;;;;;5029143;28;20041;-68
2023/06/11 05:42:40;;;;;;;11.30;10.20;;;25.70;57.20;;;;;;5045105;28;20084;-68
2023/06/11 05:45:06;;;;;;;12.73;10.83;;;25.90;57.20;;;;;;5044964;28;20417;-68
2023/06/11 05:47:33;;;;;;;11.27;9.57;;;25.90;56.00;;;;;;5045615;28;20116;-68
2023/06/11 05:50:02;;;;;;;10.60;9.53;;;26.10;55.80;;;;;;5046175;28;20563;-68
2023/06/11 05:52:28;;;;;;;10.33;9.33;;;26.20;55.40;;;;;;5044623;28;20056;-68
2023/06/11 05:54:53;;;;;;;10.60;9.50;;;26.00;55.80;;;;;;5044652;28;20041;-68
2023/06/11 05:57:20;;;;;;;9.90;8.90;;;25.60;56.70;;;;;;5045524;28;20040;-68
2023/06/11 05:59:46;;;;;;;10.40;9.50;;;25.20;57.40;;;;;;5045256;28;20506;-68
2023/06/11 06:02:12;;;;;;;12.10;9.93;;;25.40;57.20;;;;;;5028422;28;20037;-68
2023/06/11 06:04:38;;;;;;;10.73;9.63;;;25.70;56.10;;;;;;5029019;28;20041;-68
2023/06/11 06:07:04;;;;;;;10.70;9.70;;;26.00;55.90;;;;;;5044106;28;20047;-68
2023/06/11 06:09:30;;;;;;;10.87;9.87;;;26.10;55.30;;;;;;5044057;28;20041;-68
2023/06/11 06:11:56;;;;;;;10.97;9.83;;;26.20;54.60;;;;;;5043059;28;20079;-68
2023/06/11 06:14:22;;;;;;;10.47;9.27;;;26.40;54.60;;;;;;5044533;28;20404;-68
2023/06/11 06:16:47;;;;;;;12.17;10.10;;;26.50;54.20;;;;;;5038278;28;20075;-68
2023/06/11 06:19:13;;;;;;;10.60;9.53;;;26.60;54.30;;;;;;5044259;28;20155;-68
2023/06/11 06:21:39;;;;;;;12.20;9.57;;;26.70;54.10;;;;;;5044234;28;20032;-68
2023/06/11 06:24:05;;;;;;;11.43;9.60;;;26.70;53.70;;;;;;5044753;28;20094;-68
2023/06/11 06:26:31;;;;;;;10.77;9.67;;;26.60;53.70;;;;;;5044295;28;20073;-68
2023/06/11 06:28:57;;;;;;;10.80;9.70;;;26.60;54.30;;;;;;5045530;28;20037;-68
2023/06/11 06:31:24;;;;;;;11.70;9.43;;;26.80;54.10;;;;;;5061184;28;20090;-68
2023/06/11 06:33:51;;;;;;;10.73;9.63;;;27.00;53.50;;;;;;5046666;28;20658;-68
2023/06/11 06:36:19;;;;;;;9.67;8.87;;;27.00;53.00;;;;;;5046723;28;20079;-68
2023/06/11 06:38:46;;;;;;;11.10;9.43;;;27.10;52.90;;;;;;5026498;28;20037;-68
2023/06/11 06:41:12;;;;;;;10.13;9.23;;;27.20;52.60;;;;;;5045193;28;20041;-69
2023/06/11 06:43:38;;;;;;;9.73;8.80;;;27.10;52.50;;;;;;5045673;28;20140;-68
2023/06/11 06:46:03;;;;;;;10.80;9.40;;;26.90;52.60;;;;;;5043205;28;20409;-68
2023/06/11 06:48:29;;;;;;;10.77;9.30;;;26.80;52.90;;;;;;5030122;28;20037;-68
2023/06/11 06:50:55;;;;;;;10.93;8.93;;;26.80;53.30;;;;;;5046266;28;20044;-68
2023/06/11 06:53:20;;;;;;;10.10;9.10;;;26.80;53.50;;;;;;5046591;28;20040;-68
2023/06/11 06:55:47;;;;;;;13.17;9.90;;;26.80;53.80;;;;;;5046246;28;20053;-69
2023/06/11 06:58:12;;;;;;;10.90;9.80;;;26.70;54.20;;;;;;5043719;28;20045;-68
2023/06/11 07:00:38;;;;;;;9.90;9.00;;;26.50;53.70;;;;;;5029630;28;20549;-68
2023/06/11 07:03:04;;;;;;;9.83;8.87;;;26.40;54.00;;;;;;5029106;28;20072;-68
2023/06/11 07:05:30;;;;;;;10.00;9.03;;;26.20;54.50;;;;;;5045515;28;20041;-68
2023/06/11 07:07:56;;;;;;;10.60;9.60;;;26.10;55.10;;;;;;5048575;28;20067;-68
2023/06/11 07:10:21;;;;;;;10.30;9.20;;;25.90;55.00;;;;;;5048868;28;20033;-68
2023/06/11 07:12:48;;;;;;;10.03;9.23;;;25.70;55.70;;;;;;5048144;28;20045;-68
2023/06/11 07:15:14;;;;;;;9.40;8.50;;;25.50;56.10;;;;;;5047426;28;20076;-68
2023/06/11 07:17:39;;;;;;;9.20;8.37;;;25.30;57.60;;;;;;5048102;28;20033;-68
2023/06/11 07:20:07;;;;;;;10.97;9.27;;;25.20;57.70;;;;;;5041812;28;20071;-68
2023/06/11 07:22:33;;;;;;;11.70;9.20;;;25.10;58.20;;;;;;5031088;28;20404;-68
2023/06/11 07:25:00;;;;;;;10.00;9.00;;;25.00;58.60;;;;;;5041625;28;20401;-68
2023/06/11 07:27:27;;;;;;;9.77;8.70;;;25.00;58.90;;;;;;5048479;28;20091;-68
2023/06/11 07:29:52;;;;;;;9.27;8.37;;;25.10;58.50;;;;;;5048275;28;20512;-68
2023/06/11 07:32:18;;;;;;;9.07;8.27;;;25.10;57.70;;;;;;5044130;28;20053;-68
2023/06/11 07:34:44;;;;;;;9.03;8.17;;;25.10;57.40;;;;;;5046060;28;20052;-68
2023/06/11 07:37:10;;;;;;;9.27;8.37;;;25.00;57.00;;;;;;5045599;28;20444;-68
2023/06/11 07:39:35;;;;;;;9.23;8.33;;;25.00;57.50;;;;;;5032501;28;20128;-68
2023/06/11 07:42:02;;;;;;;9.33;7.53;;;25.00;57.50;;;;;;5048921;28;20128;-68
2023/06/11 07:44:27;;;;;;;10.23;9.13;;;25.10;57.80;;;;;;5049535;28;20538;-68
2023/06/11 07:46:54;;;;;;;9.27;8.40;;;25.20;57.60;;;;;;5048271;28;20125;-68
2023/06/11 07:49:19;;;;;;;10.57;9.33;;;25.30;57.10;;;;;;5032091;28;20508;-68
2023/06/11 07:51:46;;;;;;;9.50;8.20;;;25.30;56.70;;;;;;5049322;28;20037;-68
2023/06/11 07:54:11;;;;;;;10.60;8.43;;;25.40;56.70;;;;;;5049149;28;20060;-68
2023/06/11 07:56:37;;;;;;;10.20;9.20;;;25.40;56.70;;;;;;5048476;28;20656;-68
2023/06/11 07:59:03;;;;;;;9.33;8.40;;;25.60;56.80;;;;;;5032305;28;20098;-68
2023/06/11 08:01:29;;;;;;;10.03;7.87;;;25.60;56.10;;;;;;5049089;28;20055;-68
2023/06/11 08:03:55;;;;;;;9.93;8.93;;;25.80;56.10;;;;;;5048945;28;20049;-68
2023/06/11 08:06:21;;;;;;;10.37;8.10;;;25.90;56.10;;;;;;5062750;28;20476;-68
2023/06/11 08:08:47;;;;;;;10.20;8.50;;;25.90;55.60;;;;;;5048868;28;20041;-68
2023/06/11 08:11:14;;;;;;;11.20;8.67;;;26.00;55.70;;;;;;5044778;28;20095;-68
2023/06/11 08:13:40;;;;;;;9.80;8.10;;;26.00;55.30;;;;;;5040814;28;20130;-68
2023/06/11 08:16:07;;;;;;;8.70;7.80;;;26.00;55.60;;;;;;5045586;28;20513;-68
2023/06/11 08:18:33;;;;;;;9.20;7.77;;;26.10;56.10;;;;;;5041688;28;20531;-68
2023/06/11 08:21:00;;;;;;;9.23;8.33;;;26.10;55.90;;;;;;5059063;28;20041;-68
2023/06/11 08:23:25;;;;;;;9.13;8.33;;;26.20;55.20;;;;;;5034631;28;20582;-69
2023/06/11 08:25:51;;;;;;;8.83;8.03;;;26.30;55.30;;;;;;5039834;28;20041;-69
2023/06/11 08:28:17;;;;;;;10.60;8.70;;;26.40;55.60;;;;;;5036467;28;20037;-69
2023/06/11 08:30:42;;;;;;;8.90;8.00;;;26.40;55.30;;;;;;5040178;28;20810;-69
2023/06/11 08:33:09;;;;;;;9.70;8.80;;;26.50;55.10;;;;;;5041537;28;20040;-69
2023/06/11 08:35:35;;;;;;;9.40;8.50;;;26.50;55.10;;;;;;5037510;28;20401;-69
2023/06/11 08:38:00;;;;;;;9.07;8.27;;;26.60;54.70;;;;;;5040344;28;20045;-69
2023/06/11 08:40:27;;;;;;;10.27;8.17;;;26.60;55.30;;;;;;5041439;28;20068;-69
2023/06/11 08:42:53;;;;;;;9.30;8.10;;;26.70;55.30;;;;;;5038119;28;20036;-69
2023/06/11 08:45:19;;;;;;;8.97;8.07;;;26.90;54.80;;;;;;5037129;28;20103;-69
2023/06/11 08:47:51;;;;;;;8.53;7.73;;;27.00;54.20;;;;;;5034562;28;20086;-69
2023/06/11 08:50:20;;;;;;;9.20;8.30;;;27.10;54.70;;;;;;5056393;28;20412;-69
2023/06/11 08:52:54;;;;;;;9.47;8.27;;;27.10;54.00;;;;;;5044660;28;20100;-69
2023/06/11 08:55:20;;;;;;;8.77;7.72;;;27.20;53.90;;;;;;5042253;28;20063;-69
2023/06/11 08:57:46;;;;;;;9.50;8.13;;;27.30;53.70;;;;;;5033321;28;20045;-69
2023/06/11 09:00:13;;;;;;;9.00;8.07;;;27.40;53.50;;;;;;5035774;28;20041;-69
2023/06/11 09:02:39;;;;;;;8.83;7.40;;;27.50;53.20;;;;;;5040547;28;20041;-69
2023/06/11 09:05:05;;;;;;;10.07;8.20;;;27.60;53.50;;;;;;5041508;28;20489;-68
2023/06/11 09:07:32;;;;;;;9.43;8.53;;;27.70;53.30;;;;;;5041733;28;20069;-69
2023/06/11 09:10:09;;;;;;;8.60;7.80;;;27.80;53.70;;;;;;5037991;28;20049;-69
2023/06/11 09:12:35;;;;;;;9.33;8.30;;;27.90;52.90;;;;;;5036075;28;20049;-69
2023/06/11 09:15:03;;;;;;;8.67;7.87;;;28.00;52.90;;;;;;5037704;28;20128;-69
2023/06/11 09:17:37;;;;;;;9.00;8.00;;;28.10;52.10;;;;;;5039520;28;20033;-69
2023/06/11 09:20:05;;;;;;;8.32;7.47;;;28.20;52.00;;;;;;5041061;28;20076;-69
2023/06/11 09:22:32;;;;;;;11.60;8.03;;;28.30;51.60;;;;;;5027549;28;20501;-69
2023/06/11 09:25:05;;;;;;;10.83;8.20;;;28.30;51.30;;;;;;5045102;28;20539;-69
2023/06/11 09:27:32;;;;;;;9.07;7.50;;;28.30;50.90;;;;;;5042003;28;20124;-69
2023/06/11 09:30:16;;;;;;;8.63;7.70;;;28.30;51.00;;;;;;5045453;28;20405;-69
2023/06/11 09:32:45;;;;;;;8.25;7.45;;;28.40;50.60;;;;;;5030293;28;20036;-69
2023/06/11 09:35:12;;;;;;;8.73;7.93;;;28.50;51.20;;;;;;5046288;28;20497;-69
2023/06/11 09:37:49;;;;;;;8.70;7.90;;;28.50;51.10;;;;;;5029514;28;20048;-69
2023/06/11 09:40:16;;;;;;;8.27;7.20;;;28.60;50.70;;;;;;5047297;28;20088;-69
2023/06/11 09:42:47;;;;;;;10.23;7.50;;;28.70;50.70;;;;;;5030569;28;20072;-69
2023/06/11 09:45:16;;;;;;;8.37;7.57;;;28.80;50.40;;;;;;5046189;28;20047;-69
2023/06/11 09:47:43;;;;;;;9.13;8.23;;;28.80;50.90;;;;;;5045631;28;20086;-69
2023/06/11 09:50:11;;;;;;;9.87;7.43;;;28.90;50.90;;;;;;5046055;28;20059;-69
2023/06/11 09:52:38;;;;;;;8.67;7.37;;;29.00;50.70;;;;;;5047448;28;20048;-69
2023/06/11 09:55:08;;;;;;;8.20;7.40;;;29.10;49.80;;;;;;5046839;28;20033;-69
2023/06/11 09:57:35;;;;;;;8.40;7.60;;;29.30;49.50;;;;;;5045598;28;20037;-69
2023/06/11 10:00:01;;;;;;;8.73;8.03;;;29.30;49.60;;;;;;5039637;28;20067;-69
2023/06/11 10:02:27;;;;;;;9.03;7.63;;;29.40;50.30;;;;;;5044825;28;20123;-69
2023/06/11 10:04:53;;;;;;;9.17;8.37;;;29.40;49.40;;;;;;5028981;28;20110;-70
2023/06/11 10:07:21;;;;;;;10.40;7.53;;;29.50;48.10;;;;;;5046494;28;20155;-69
2023/06/11 10:09:51;;;;;;;8.27;7.57;;;29.40;48.90;;;;;;5047393;28;20045;-69
2023/06/11 10:12:19;;;;;;;9.20;8.40;;;29.30;49.90;;;;;;5030085;28;20128;-69
2023/06/11 10:14:52;;;;;;;9.30;8.40;;;29.40;49.50;;;;;;5046637;28;20079;-69
2023/06/11 10:17:18;;;;;;;8.73;8.03;;;29.40;49.90;;;;;;5061957;28;20032;-69
2023/06/11 10:19:51;;;;;;;8.63;7.73;;;29.50;50.30;;;;;;5047162;28;20037;-69
2023/06/11 10:22:34;;;;;;;8.63;7.78;;;29.70;50.80;;;;;;5024010;28;21093;-69
2023/06/11 10:25:03;;;;;;;8.43;7.63;;;29.80;50.50;;;;;;5047179;28;20434;-70
2023/06/11 10:27:42;;;;;;;7.87;7.07;;;30.00;48.60;;;;;;5027699;28;20119;-70
2023/06/11 10:30:09;;;;;;;7.70;7.00;;;30.10;49.00;;;;;;5065360;28;20428;-69
2023/06/11 10:32:48;;;;;;;8.13;7.30;;;30.10;48.60;;;;;;5028638;28;20041;-69
2023/06/11 10:35:22;;;;;;;7.67;6.97;;;30.10;47.30;;;;;;5050067;28;20061;-69
2023/06/11 10:37:48;;;;;;;9.32;7.35;;;30.10;47.70;;;;;;5044939;28;20048;-69
2023/06/11 10:40:14;;;;;;;8.00;7.20;;;30.20;48.30;;;;;;5048421;28;20047;-69
2023/06/11 10:42:42;;;;;;;9.43;7.30;;;30.30;47.50;;;;;;5051414;28;20043;-69
2023/06/11 10:45:12;;;;;;;9.07;6.93;;;30.40;46.20;;;;;;5050336;28;20155;-69
2023/06/11 10:47:45;;;;;;;7.50;6.80;;;30.40;47.10;;;;;;5050583;28;20036;-70
2023/06/11 10:50:13;;;;;;;7.97;7.27;;;30.40;47.80;;;;;;5047403;28;20066;-70
2023/06/11 10:52:56;;;;;;;6.83;5.93;;;30.50;47.30;;;;;;5042998;28;20581;-70
2023/06/11 10:55:23;;;;;;;7.43;6.37;;;30.60;46.80;;;;;;5046507;28;20040;-70
2023/06/11 10:57:53;;;;;;;7.53;6.77;;;30.60;46.50;;;;;;5046839;28;20515;-70
2023/06/11 11:00:19;;;;;;;7.50;6.73;;;30.60;46.00;;;;;;5043652;28;20043;-70
2023/06/11 11:02:46;;;;;;;8.30;6.80;;;30.60;46.00;;;;;;5062321;28;20049;-70
2023/06/11 11:05:12;;;;;;;7.43;6.70;;;30.70;46.00;;;;;;5069518;28;20033;-70
2023/06/11 11:07:38;;;;;;;8.10;6.80;;;30.80;45.80;;;;;;5057037;28;20037;-70
2023/06/11 11:10:05;;;;;;;7.57;6.83;;;30.90;45.00;;;;;;5053869;28;20029;-70
2023/06/11 11:12:46;;;;;;;9.87;6.67;;;30.90;45.20;;;;;;5049123;28;20033;-70
2023/06/11 11:15:12;;;;;;;6.80;6.20;;;30.90;44.90;;;;;;5047471;28;20104;-70
2023/06/11 11:17:40;;;;;;;7.73;6.20;;;30.90;44.30;;;;;;5054535;28;20677;-70
2023/06/11 11:20:10;;;;;;;6.90;6.00;;;31.10;45.30;;;;;;5051869;28;20626;-70
2023/06/11 11:22:37;;;;;;;5.00;4.60;;;31.20;43.60;;;;;;5051818;28;20057;-70
2023/06/11 11:25:04;;;;;;;8.70;5.73;;;31.30;42.70;;;;;;5034767;28;20043;-70
2023/06/11 11:27:30;;;;;;;7.00;5.27;;;31.30;42.80;;;;;;5054799;28;20059;-70
2023/06/11 11:29:59;;;;;;;7.80;5.60;;;31.30;42.50;;;;;;5046836;28;20079;-70
2023/06/11 11:32:33;;;;;;;6.67;5.60;;;31.30;42.70;;;;;;5047309;28;20029;-70
2023/06/11 11:35:00;;;;;;;5.90;5.10;;;31.40;42.50;;;;;;5067020;28;20037;-70
2023/06/11 11:37:29;;;;;;;6.43;5.30;;;31.40;42.60;;;;;;5053224;28;20029;-70
2023/06/11 11:39:55;;;;;;;7.80;6.23;;;31.40;42.50;;;;;;5057420;28;20074;-70
2023/06/11 11:42:26;;;;;;;6.77;6.07;;;31.50;42.70;;;;;;5049965;28;20040;-69
2023/06/11 11:44:55;;;;;;;7.87;6.13;;;31.60;42.50;;;;;;5030959;28;20102;-69
2023/06/11 11:47:22;;;;;;;6.67;5.77;;;31.60;42.20;;;;;;5054200;28;20549;-69
2023/06/11 11:49:56;;;;;;;6.00;5.50;;;31.50;42.30;;;;;;5049533;28;20068;-70
2023/06/11 11:52:23;;;;;;;5.67;5.17;;;31.20;42.20;;;;;;5032377;28;20143;-70
2023/06/11 11:54:49;;;;;;;6.50;5.83;;;31.10;42.40;;;;;;5052463;28;20071;-69
2023/06/11 11:57:22;;;;;;;6.57;5.50;;;31.20;42.10;;;;;;5051163;28;20090;-69
2023/06/11 11:59:53;;;;;;;6.50;5.40;;;31.30;41.10;;;;;;5036018;28;20498;-69
2023/06/11 12:02:25;;;;;;;6.10;5.50;;;31.40;40.90;;;;;;5043524;28;20068;-69
2023/06/11 12:04:51;;;;;;;6.43;5.20;;;31.60;41.90;;;;;;5051085;28;20048;-69
2023/06/11 12:07:20;;;;;;;5.93;5.30;;;31.80;41.90;;;;;;5048773;28;20048;-69
2023/06/11 12:09:45;;;;;;;5.40;4.90;;;32.00;41.20;;;;;;5049264;28;20055;-69
2023/06/11 12:12:11;;;;;;;6.17;4.93;;;32.10;40.40;;;;;;5048904;28;20037;-69
2023/06/11 12:14:37;;;;;;;5.27;4.77;;;32.30;40.40;;;;;;5049303;28;20049;-69
2023/06/11 12:17:07;;;;;;;5.97;4.67;;;32.40;40.20;;;;;;5066322;28;20573;-69
2023/06/11 12:19:33;;;;;;;5.55;5.00;;;32.30;38.90;;;;;;5049622;28;20360;-69
2023/06/11 12:21:59;;;;;;;5.95;4.95;;;32.30;39.20;;;;;;5048446;28;20444;-69
2023/06/11 12:24:25;;;;;;;6.78;4.75;;;32.50;39.20;;;;;;5049051;28;20057;-69
2023/06/11 12:26:51;;;;;;;5.90;5.18;;;32.60;39.00;;;;;;5045473;28;20044;-69
2023/06/11 12:29:19;;;;;;;8.25;5.45;;;32.50;39.20;;;;;;5029140;28;20156;-69
2023/06/11 12:31:48;;;;;;;5.97;5.38;;;32.50;39.10;;;;;;5048915;28;20048;-69
2023/06/11 12:34:16;;;;;;;5.25;4.80;;;32.50;38.20;;;;;;5032552;28;20481;-69
2023/06/11 12:36:43;;;;;;;6.35;4.95;;;32.40;39.00;;;;;;5048886;28;20044;-70
2023/06/11 12:39:10;;;;;;;6.05;4.90;;;32.40;38.80;;;;;;5047399;28;20110;-69